PVV7842 FNBJ-HKJK
Flight info
| Callsign | PVV7842 |
|---|---|
| Flight time | 3h 14m |
| Altitude | 33000 |
| Route | VBJ DCT VNA UM306 IKTAL/N0501F350 UM306 PARIN PARIN2P |
| Aircraft | B742/H-SDFGHIRWY/L |
Departure
| Time | 2026-04-27 14:45 |
|---|---|
| Airport | Dr. Antonio Agostinho Neto International Airport (FNBJ) |
Arrival
| Time | 2026-04-27 17:59 |
|---|---|
| Airport | Jomo Kenyatta International Airport (HKJK) |
| Time | Latitude | Longitude | Altitude | Speed | Heading |
|---|---|---|---|---|---|
| 2026-04-27 14:09 | -9.04817 | 13.51286 | 554 ft | 0 kts | 323° |
| 2026-04-27 14:40 | -9.04807 | 13.51283 | 554 ft | 2 kts | 359° |
| 2026-04-27 14:41 | -9.04794 | 13.51301 | 553 ft | 3 kts | 91° |
| 2026-04-27 14:41 | -9.04807 | 13.51321 | 553 ft | 4 kts | 155° |
| 2026-04-27 14:41 | -9.04829 | 13.51331 | 554 ft | 3 kts | 156° |
| 2026-04-27 14:41 | -9.04876 | 13.51352 | 557 ft | 11 kts | 155° |
| 2026-04-27 14:42 | -9.04972 | 13.51402 | 560 ft | 18 kts | 142° |
| 2026-04-27 14:42 | -9.04969 | 13.51513 | 561 ft | 17 kts | 56° |
| 2026-04-27 14:42 | -9.04898 | 13.51616 | 558 ft | 18 kts | 55° |
| 2026-04-27 14:42 | -9.04822 | 13.51725 | 557 ft | 18 kts | 55° |
| 2026-04-27 14:43 | -9.04816 | 13.51819 | 559 ft | 11 kts | 147° |
| 2026-04-27 14:43 | -9.04869 | 13.51854 | 562 ft | 7 kts | 146° |
| 2026-04-27 14:43 | -9.04910 | 13.51874 | 562 ft | 5 kts | 173° |
| 2026-04-27 14:43 | -9.04952 | 13.51849 | 562 ft | 10 kts | 231° |
| 2026-04-27 14:44 | -9.05063 | 13.51696 | 563 ft | 55 kts | 233° |
| 2026-04-27 14:44 | -9.05421 | 13.51219 | 562 ft | 113 kts | 233° |
| 2026-04-27 14:44 | -9.06012 | 13.50419 | 564 ft | 164 kts | 233° |
| 2026-04-27 14:44 | -9.06745 | 13.49419 | 831 ft | 179 kts | 233° |
| 2026-04-27 14:45 | -9.07492 | 13.48379 | 1196 ft | 188 kts | 233° |
| 2026-04-27 14:45 | -9.08266 | 13.47310 | 1736 ft | 188 kts | 233° |
| 2026-04-27 14:45 | -9.09063 | 13.46258 | 2075 ft | 192 kts | 222° |
| 2026-04-27 14:45 | -9.10299 | 13.45727 | 2294 ft | 199 kts | 177° |
| 2026-04-27 14:46 | -9.11606 | 13.46186 | 2500 ft | 208 kts | 136° |
| 2026-04-27 14:46 | -9.12533 | 13.47368 | 2713 ft | 220 kts | 128° |
| 2026-04-27 14:46 | -9.13523 | 13.48612 | 2910 ft | 228 kts | 113° |
| 2026-04-27 14:46 | -9.13782 | 13.50213 | 3122 ft | 241 kts | 83° |
| 2026-04-27 14:47 | -9.13391 | 13.51925 | 3333 ft | 261 kts | 69° |
| 2026-04-27 14:47 | -9.12576 | 13.53639 | 3537 ft | 282 kts | 60° |
| 2026-04-27 14:47 | -9.11499 | 13.55408 | 3784 ft | 301 kts | 57° |
| 2026-04-27 14:47 | -9.10286 | 13.57243 | 4062 ft | 320 kts | 56° |
| 2026-04-27 14:48 | -9.08985 | 13.59163 | 4344 ft | 339 kts | 56° |
| 2026-04-27 14:48 | -9.06265 | 13.63145 | 5869 ft | 342 kts | 56° |
| 2026-04-27 14:48 | -9.04912 | 13.65129 | 6636 ft | 343 kts | 56° |
| 2026-04-27 14:49 | -9.03544 | 13.67134 | 7321 ft | 348 kts | 56° |
| 2026-04-27 14:49 | -9.02152 | 13.69178 | 7985 ft | 352 kts | 56° |
| 2026-04-27 14:49 | -9.00758 | 13.71222 | 8734 ft | 355 kts | 56° |
| 2026-04-27 14:49 | -8.99344 | 13.73295 | 9384 ft | 359 kts | 56° |
| 2026-04-27 14:50 | -8.97918 | 13.75389 | 10054 ft | 363 kts | 56° |
| 2026-04-27 14:50 | -8.96476 | 13.77503 | 10715 ft | 367 kts | 56° |
| 2026-04-27 14:50 | -8.95013 | 13.79648 | 11378 ft | 370 kts | 56° |
| 2026-04-27 14:50 | -8.93549 | 13.81794 | 11972 ft | 374 kts | 55° |
| 2026-04-27 14:51 | -8.92052 | 13.83988 | 12590 ft | 378 kts | 55° |
| 2026-04-27 14:51 | -8.90571 | 13.86158 | 13155 ft | 381 kts | 55° |
| 2026-04-27 14:51 | -8.89052 | 13.88384 | 13741 ft | 384 kts | 55° |
| 2026-04-27 14:51 | -8.88038 | 13.89871 | 14145 ft | 385 kts | 56° |
| 2026-04-27 14:52 | -8.85978 | 13.92893 | 14843 ft | 391 kts | 56° |
| 2026-04-27 14:52 | -8.84429 | 13.95163 | 15403 ft | 393 kts | 56° |
| 2026-04-27 14:52 | -8.82862 | 13.97457 | 15912 ft | 397 kts | 56° |
| 2026-04-27 14:52 | -8.81297 | 13.99748 | 16429 ft | 399 kts | 56° |
| 2026-04-27 14:53 | -8.79714 | 14.02065 | 16913 ft | 402 kts | 56° |
| 2026-04-27 14:53 | -8.78118 | 14.04401 | 17402 ft | 405 kts | 56° |
| 2026-04-27 14:53 | -8.76506 | 14.06759 | 17874 ft | 407 kts | 56° |
| 2026-04-27 14:53 | -8.74884 | 14.09132 | 18340 ft | 410 kts | 56° |
| 2026-04-27 14:54 | -8.73260 | 14.11508 | 18794 ft | 413 kts | 56° |
| 2026-04-27 14:54 | -8.71620 | 14.13907 | 19184 ft | 417 kts | 56° |
| 2026-04-27 14:54 | -8.69961 | 14.16331 | 19634 ft | 419 kts | 56° |
| 2026-04-27 14:54 | -8.68295 | 14.18767 | 20059 ft | 421 kts | 56° |
| 2026-04-27 14:55 | -8.66619 | 14.21217 | 20445 ft | 424 kts | 55° |
| 2026-04-27 14:55 | -8.64933 | 14.23680 | 20808 ft | 428 kts | 55° |
| 2026-04-27 14:55 | -8.63246 | 14.26144 | 21226 ft | 429 kts | 55° |
| 2026-04-27 14:55 | -8.61531 | 14.28650 | 21616 ft | 432 kts | 55° |
| 2026-04-27 14:56 | -8.59806 | 14.31168 | 21974 ft | 435 kts | 55° |
| 2026-04-27 14:56 | -8.58076 | 14.33695 | 22332 ft | 438 kts | 55° |
| 2026-04-27 14:56 | -8.56330 | 14.36243 | 22726 ft | 440 kts | 55° |
| 2026-04-27 14:56 | -8.54594 | 14.38777 | 23105 ft | 442 kts | 55° |
| 2026-04-27 14:57 | -8.52834 | 14.41345 | 23506 ft | 443 kts | 56° |
| 2026-04-27 14:57 | -8.51078 | 14.43908 | 23905 ft | 445 kts | 56° |
| 2026-04-27 14:57 | -8.49311 | 14.46486 | 24247 ft | 447 kts | 56° |
| 2026-04-27 14:57 | -8.47520 | 14.49099 | 24596 ft | 450 kts | 56° |
| 2026-04-27 14:58 | -8.45757 | 14.51676 | 24942 ft | 451 kts | 57° |
| 2026-04-27 14:58 | -8.44258 | 14.54506 | 25265 ft | 452 kts | 68° |
| 2026-04-27 14:58 | -8.43200 | 14.57459 | 25587 ft | 453 kts | 72° |
| 2026-04-27 14:58 | -8.42250 | 14.60549 | 25960 ft | 454 kts | 73° |
| 2026-04-27 14:59 | -8.41351 | 14.63579 | 26239 ft | 457 kts | 73° |
| 2026-04-27 14:59 | -8.40423 | 14.66683 | 26561 ft | 459 kts | 73° |
| 2026-04-27 14:59 | -8.39476 | 14.69785 | 26904 ft | 459 kts | 73° |
| 2026-04-27 14:59 | -8.38516 | 14.72888 | 27212 ft | 461 kts | 73° |
| 2026-04-27 15:00 | -8.37556 | 14.75974 | 27527 ft | 462 kts | 73° |
| 2026-04-27 15:00 | -8.36590 | 14.79068 | 27829 ft | 464 kts | 73° |
| 2026-04-27 15:00 | -8.35612 | 14.82198 | 28107 ft | 465 kts | 73° |
| 2026-04-27 15:00 | -8.34644 | 14.85290 | 28392 ft | 466 kts | 73° |
| 2026-04-27 15:01 | -8.33670 | 14.88404 | 28661 ft | 468 kts | 73° |
| 2026-04-27 15:01 | -8.32675 | 14.91582 | 28928 ft | 469 kts | 73° |
| 2026-04-27 15:01 | -8.31689 | 14.94733 | 29178 ft | 471 kts | 73° |
| 2026-04-27 15:01 | -8.30701 | 14.97890 | 29394 ft | 473 kts | 73° |
| 2026-04-27 15:02 | -8.29703 | 15.01074 | 29742 ft | 473 kts | 73° |
| 2026-04-27 15:02 | -8.28715 | 15.04226 | 30149 ft | 470 kts | 73° |
| 2026-04-27 15:02 | -8.27743 | 15.07329 | 30534 ft | 469 kts | 73° |
| 2026-04-27 15:02 | -8.26756 | 15.10476 | 30907 ft | 468 kts | 73° |
| 2026-04-27 15:03 | -8.25778 | 15.13595 | 31222 ft | 468 kts | 73° |
| 2026-04-27 15:03 | -8.24796 | 15.16725 | 31595 ft | 467 kts | 73° |
| 2026-04-27 15:03 | -8.23813 | 15.19858 | 31952 ft | 466 kts | 73° |
| 2026-04-27 15:03 | -8.22832 | 15.22984 | 32334 ft | 465 kts | 73° |
| 2026-04-27 15:04 | -8.21859 | 15.26082 | 32719 ft | 463 kts | 73° |
| 2026-04-27 15:04 | -8.20887 | 15.29177 | 32997 ft | 465 kts | 73° |
| 2026-04-27 15:04 | -8.18892 | 15.35531 | 33069 ft | 478 kts | 73° |
| 2026-04-27 15:05 | -8.16845 | 15.42043 | 33082 ft | 490 kts | 73° |
| 2026-04-27 15:05 | -8.14836 | 15.48431 | 33087 ft | 469 kts | 73° |
| 2026-04-27 15:06 | -8.12833 | 15.54799 | 33092 ft | 482 kts | 73° |
| 2026-04-27 15:06 | -8.10784 | 15.61305 | 33076 ft | 482 kts | 73° |
| 2026-04-27 15:07 | -8.08769 | 15.67691 | 33062 ft | 478 kts | 73° |
| 2026-04-27 15:07 | -8.06734 | 15.74106 | 33049 ft | 479 kts | 73° |
| 2026-04-27 15:08 | -8.04713 | 15.80495 | 33046 ft | 478 kts | 73° |
| 2026-04-27 15:08 | -8.02701 | 15.86862 | 33056 ft | 478 kts | 73° |
| 2026-04-27 15:09 | -8.00675 | 15.93278 | 33063 ft | 477 kts | 73° |
| 2026-04-27 15:09 | -7.98665 | 15.99638 | 33071 ft | 478 kts | 73° |
| 2026-04-27 15:10 | -7.96633 | 16.06064 | 33070 ft | 478 kts | 73° |
| 2026-04-27 15:10 | -7.94613 | 16.12452 | 33065 ft | 478 kts | 73° |
| 2026-04-27 15:11 | -7.92594 | 16.18828 | 33063 ft | 478 kts | 73° |
| 2026-04-27 15:11 | -7.90559 | 16.25252 | 33057 ft | 478 kts | 73° |
| 2026-04-27 15:12 | -7.88541 | 16.31626 | 33048 ft | 478 kts | 73° |
| 2026-04-27 15:12 | -7.86519 | 16.38010 | 33035 ft | 478 kts | 73° |
| 2026-04-27 15:13 | -7.84483 | 16.44427 | 33015 ft | 479 kts | 73° |
| 2026-04-27 15:13 | -7.82449 | 16.50835 | 33001 ft | 479 kts | 73° |
| 2026-04-27 15:14 | -7.80420 | 16.57219 | 32988 ft | 479 kts | 73° |
| 2026-04-27 15:14 | -7.78372 | 16.63664 | 32981 ft | 479 kts | 73° |
| 2026-04-27 15:15 | -7.76329 | 16.70068 | 32973 ft | 480 kts | 72° |
| 2026-04-27 15:15 | -7.74277 | 16.76484 | 32967 ft | 480 kts | 72° |
| 2026-04-27 15:16 | -7.72237 | 16.82878 | 32970 ft | 480 kts | 72° |
| 2026-04-27 15:16 | -7.70200 | 16.89273 | 32964 ft | 481 kts | 72° |
| 2026-04-27 15:17 | -7.68137 | 16.95745 | 32964 ft | 480 kts | 72° |
| 2026-04-27 15:17 | -7.66088 | 17.02168 | 32962 ft | 481 kts | 72° |
| 2026-04-27 15:18 | -7.64041 | 17.08584 | 32959 ft | 481 kts | 72° |
| 2026-04-27 15:18 | -7.61983 | 17.15028 | 32957 ft | 481 kts | 72° |
| 2026-04-27 15:19 | -7.59934 | 17.21438 | 32954 ft | 482 kts | 72° |
| 2026-04-27 15:19 | -7.57862 | 17.27911 | 32956 ft | 482 kts | 72° |
| 2026-04-27 15:20 | -7.55804 | 17.34343 | 32962 ft | 482 kts | 72° |
| 2026-04-27 15:20 | -7.53740 | 17.40784 | 32971 ft | 482 kts | 72° |
| 2026-04-27 15:21 | -7.51690 | 17.47182 | 32977 ft | 483 kts | 72° |
| 2026-04-27 15:21 | -7.49630 | 17.53606 | 32981 ft | 482 kts | 72° |
| 2026-04-27 15:22 | -7.47556 | 17.60069 | 32979 ft | 482 kts | 72° |
| 2026-04-27 15:22 | -7.45484 | 17.66520 | 32981 ft | 483 kts | 72° |
| 2026-04-27 15:23 | -7.43407 | 17.72953 | 32978 ft | 483 kts | 72° |
| 2026-04-27 15:23 | -7.41332 | 17.79387 | 32983 ft | 483 kts | 72° |
| 2026-04-27 15:24 | -7.39261 | 17.85822 | 32990 ft | 483 kts | 72° |
| 2026-04-27 15:24 | -7.37176 | 17.92305 | 32998 ft | 483 kts | 72° |
| 2026-04-27 15:25 | -7.35116 | 17.98704 | 33008 ft | 483 kts | 72° |
| 2026-04-27 15:25 | -7.33026 | 18.05194 | 33023 ft | 484 kts | 72° |
| 2026-04-27 15:26 | -7.31297 | 18.10558 | 33030 ft | 484 kts | 72° |
| 2026-04-27 15:26 | -7.28890 | 18.18074 | 33042 ft | 483 kts | 72° |
| 2026-04-27 15:27 | -7.27186 | 18.23503 | 33050 ft | 484 kts | 72° |
| 2026-04-27 15:27 | -7.24827 | 18.31017 | 33058 ft | 484 kts | 72° |
| 2026-04-27 15:28 | -7.22785 | 18.37505 | 33060 ft | 484 kts | 72° |
| 2026-04-27 15:28 | -7.20752 | 18.43960 | 33065 ft | 483 kts | 72° |
| 2026-04-27 15:29 | -7.18708 | 18.50442 | 33068 ft | 484 kts | 72° |
| 2026-04-27 15:29 | -7.16634 | 18.56851 | 33064 ft | 484 kts | 71° |
| 2026-04-27 15:30 | -7.14496 | 18.63304 | 33058 ft | 484 kts | 71° |
| 2026-04-27 15:30 | -7.12360 | 18.69741 | 33055 ft | 485 kts | 71° |
| 2026-04-27 15:31 | -7.10581 | 18.75100 | 33052 ft | 484 kts | 71° |
| 2026-04-27 15:31 | -7.08111 | 18.82565 | 33052 ft | 484 kts | 71° |
| 2026-04-27 15:32 | -7.05982 | 18.89010 | 33053 ft | 484 kts | 71° |
| 2026-04-27 15:32 | -7.03855 | 18.95449 | 33051 ft | 484 kts | 71° |
| 2026-04-27 15:33 | -7.02076 | 19.00828 | 33050 ft | 484 kts | 71° |
| 2026-04-27 15:33 | -6.99592 | 19.08339 | 33048 ft | 484 kts | 71° |
| 2026-04-27 15:34 | -6.97444 | 19.14829 | 33045 ft | 484 kts | 71° |
| 2026-04-27 15:34 | -6.95320 | 19.21242 | 33041 ft | 485 kts | 71° |
| 2026-04-27 15:35 | -6.93537 | 19.26628 | 33039 ft | 485 kts | 71° |
| 2026-04-27 15:35 | -6.91029 | 19.34195 | 33034 ft | 486 kts | 71° |
| 2026-04-27 15:36 | -6.88908 | 19.40689 | 33028 ft | 487 kts | 71° |
| 2026-04-27 15:36 | -6.87172 | 19.46054 | 33022 ft | 485 kts | 71° |
| 2026-04-27 15:37 | -6.84725 | 19.53597 | 33019 ft | 488 kts | 71° |
| 2026-04-27 15:37 | -6.82613 | 19.60095 | 33010 ft | 486 kts | 71° |
| 2026-04-27 15:38 | -6.80497 | 19.66598 | 33005 ft | 487 kts | 71° |
| 2026-04-27 15:38 | -6.78385 | 19.73055 | 32997 ft | 487 kts | 71° |
| 2026-04-27 15:39 | -6.76261 | 19.79555 | 32989 ft | 487 kts | 71° |
| 2026-04-27 15:39 | -6.74145 | 19.86026 | 32985 ft | 488 kts | 71° |
| 2026-04-27 15:40 | -6.72014 | 19.92543 | 32983 ft | 488 kts | 71° |
| 2026-04-27 15:40 | -6.70250 | 19.97936 | 32983 ft | 488 kts | 71° |
| 2026-04-27 15:41 | -6.68136 | 20.04399 | 32984 ft | 488 kts | 71° |
| 2026-04-27 15:41 | -6.66007 | 20.10902 | 32985 ft | 488 kts | 71° |
| 2026-04-27 15:42 | -6.63872 | 20.17424 | 32985 ft | 488 kts | 71° |
| 2026-04-27 15:42 | -6.61756 | 20.23881 | 32985 ft | 486 kts | 71° |
| 2026-04-27 15:43 | -6.59282 | 20.31428 | 32985 ft | 487 kts | 71° |
| 2026-04-27 15:43 | -6.57153 | 20.37919 | 32982 ft | 487 kts | 71° |
| 2026-04-27 15:44 | -6.55377 | 20.43332 | 32978 ft | 486 kts | 71° |
| 2026-04-27 15:44 | -6.53273 | 20.49742 | 32973 ft | 488 kts | 71° |
| 2026-04-27 15:45 | -6.50785 | 20.57316 | 32964 ft | 485 kts | 71° |
| 2026-04-27 15:45 | -6.48662 | 20.63777 | 32960 ft | 488 kts | 71° |
| 2026-04-27 15:46 | -6.46522 | 20.70269 | 32956 ft | 486 kts | 71° |
| 2026-04-27 15:46 | -6.44386 | 20.76739 | 32954 ft | 486 kts | 71° |
| 2026-04-27 15:47 | -6.42640 | 20.82103 | 32955 ft | 486 kts | 71° |
| 2026-04-27 15:47 | -6.40307 | 20.89740 | 32960 ft | 486 kts | 72° |
| 2026-04-27 15:48 | -6.38664 | 20.95148 | 32962 ft | 485 kts | 72° |
| 2026-04-27 15:49 | -6.35358 | 21.05954 | 32967 ft | 485 kts | 72° |
| 2026-04-27 15:49 | -6.33700 | 21.11360 | 32967 ft | 485 kts | 72° |
| 2026-04-27 15:50 | -6.31382 | 21.18914 | 32971 ft | 486 kts | 72° |
| 2026-04-27 15:50 | -6.29718 | 21.24332 | 32971 ft | 486 kts | 72° |
| 2026-04-27 15:51 | -6.27721 | 21.30835 | 32971 ft | 485 kts | 72° |
| 2026-04-27 15:51 | -6.25722 | 21.37339 | 32972 ft | 486 kts | 72° |
| 2026-04-27 15:52 | -6.23729 | 21.43821 | 32973 ft | 487 kts | 72° |
| 2026-04-27 15:52 | -6.21731 | 21.50317 | 32972 ft | 485 kts | 72° |
| 2026-04-27 15:53 | -6.19725 | 21.56832 | 32973 ft | 487 kts | 72° |
| 2026-04-27 15:53 | -6.17735 | 21.63297 | 32976 ft | 486 kts | 72° |
| 2026-04-27 15:54 | -6.15689 | 21.69829 | 32977 ft | 487 kts | 71° |
| 2026-04-27 15:54 | -6.13542 | 21.76283 | 32976 ft | 487 kts | 70° |
| 2026-04-27 15:55 | -6.11388 | 21.82737 | 32978 ft | 487 kts | 70° |
| 2026-04-27 15:55 | -6.09226 | 21.89258 | 32979 ft | 487 kts | 70° |
| 2026-04-27 15:56 | -6.07090 | 21.95710 | 32979 ft | 487 kts | 70° |
| 2026-04-27 15:56 | -6.04595 | 22.03250 | 32981 ft | 487 kts | 70° |
| 2026-04-27 15:57 | -6.02454 | 22.09715 | 32979 ft | 487 kts | 70° |
| 2026-04-27 15:57 | -6.00652 | 22.15153 | 32977 ft | 488 kts | 70° |
| 2026-04-27 15:58 | -5.98520 | 22.21586 | 32974 ft | 486 kts | 70° |
| 2026-04-27 15:58 | -5.96372 | 22.28064 | 32971 ft | 487 kts | 70° |
| 2026-04-27 15:59 | -5.94234 | 22.34509 | 32969 ft | 486 kts | 70° |
| 2026-04-27 15:59 | -5.92088 | 22.40976 | 32969 ft | 487 kts | 70° |
| 2026-04-27 16:00 | -5.89939 | 22.47446 | 32969 ft | 486 kts | 70° |
| 2026-04-27 16:00 | -5.87695 | 22.53904 | 32970 ft | 485 kts | 69° |
| 2026-04-27 16:01 | -5.85421 | 22.60300 | 32971 ft | 485 kts | 69° |
| 2026-04-27 16:01 | -5.83135 | 22.66749 | 32976 ft | 486 kts | 69° |
| 2026-04-27 16:02 | -5.80870 | 22.73131 | 32978 ft | 485 kts | 69° |
| 2026-04-27 16:02 | -5.78596 | 22.79548 | 32976 ft | 484 kts | 69° |
| 2026-04-27 16:03 | -5.76336 | 22.85936 | 32980 ft | 485 kts | 69° |
| 2026-04-27 16:03 | -5.74082 | 22.92311 | 32981 ft | 484 kts | 69° |
| 2026-04-27 16:04 | -5.71829 | 22.98678 | 32987 ft | 485 kts | 69° |
| 2026-04-27 16:04 | -5.69558 | 23.05094 | 32982 ft | 485 kts | 69° |
| 2026-04-27 16:05 | -5.67283 | 23.11518 | 32975 ft | 484 kts | 69° |
| 2026-04-27 16:05 | -5.65036 | 23.17859 | 32968 ft | 485 kts | 69° |
| 2026-04-27 16:06 | -5.62783 | 23.24218 | 32965 ft | 485 kts | 69° |
| 2026-04-27 16:06 | -5.60499 | 23.30661 | 32960 ft | 484 kts | 69° |
| 2026-04-27 16:07 | -5.58246 | 23.37011 | 32961 ft | 485 kts | 69° |
| 2026-04-27 16:07 | -5.55962 | 23.43447 | 32956 ft | 485 kts | 69° |
| 2026-04-27 16:08 | -5.53669 | 23.49831 | 32952 ft | 485 kts | 69° |
| 2026-04-27 16:08 | -5.51311 | 23.56193 | 32956 ft | 485 kts | 69° |
| 2026-04-27 16:09 | -5.48946 | 23.62560 | 32962 ft | 485 kts | 69° |
| 2026-04-27 16:09 | -5.45403 | 23.72102 | 32975 ft | 486 kts | 69° |
| 2026-04-27 16:10 | -5.40693 | 23.84804 | 32970 ft | 485 kts | 69° |
| 2026-04-27 16:11 | -5.37164 | 23.94329 | 32959 ft | 485 kts | 69° |
| 2026-04-27 16:12 | -5.33641 | 24.03888 | 32951 ft | 485 kts | 69° |
| 2026-04-27 16:13 | -5.30122 | 24.13448 | 32960 ft | 485 kts | 69° |
| 2026-04-27 16:13 | -5.26180 | 24.24084 | 32976 ft | 485 kts | 69° |
| 2026-04-27 16:14 | -5.21849 | 24.35695 | 32974 ft | 484 kts | 69° |
| 2026-04-27 16:15 | -5.17118 | 24.48381 | 32964 ft | 485 kts | 69° |
| 2026-04-27 16:16 | -5.12369 | 24.61107 | 32962 ft | 485 kts | 69° |
| 2026-04-27 16:17 | -5.07616 | 24.73809 | 32962 ft | 486 kts | 68° |
| 2026-04-27 16:18 | -5.02857 | 24.86531 | 32958 ft | 487 kts | 68° |
| 2026-04-27 16:19 | -5.00490 | 24.92864 | 32959 ft | 487 kts | 68° |
| 2026-04-27 16:20 | -4.95709 | 25.05650 | 32952 ft | 487 kts | 68° |
| 2026-04-27 16:21 | -4.92110 | 25.15264 | 32957 ft | 486 kts | 68° |
| 2026-04-27 16:21 | -4.88550 | 25.24776 | 33187 ft | 485 kts | 68° |
| 2026-04-27 16:22 | -4.87355 | 25.27973 | 33273 ft | 484 kts | 68° |
| 2026-04-27 16:22 | -4.84991 | 25.34286 | 33446 ft | 483 kts | 68° |
| 2026-04-27 16:22 | -4.83813 | 25.37431 | 33525 ft | 482 kts | 68° |
| 2026-04-27 16:23 | -4.80264 | 25.46899 | 33741 ft | 483 kts | 68° |
| 2026-04-27 16:24 | -4.77893 | 25.53220 | 33876 ft | 481 kts | 68° |
| 2026-04-27 16:24 | -4.75528 | 25.59527 | 34003 ft | 480 kts | 68° |
| 2026-04-27 16:25 | -4.73178 | 25.65790 | 34120 ft | 478 kts | 68° |
| 2026-04-27 16:25 | -4.70823 | 25.72045 | 34234 ft | 479 kts | 68° |
| 2026-04-27 16:26 | -4.68471 | 25.78296 | 34346 ft | 478 kts | 68° |
| 2026-04-27 16:26 | -4.66132 | 25.84519 | 34447 ft | 478 kts | 68° |
| 2026-04-27 16:27 | -4.63780 | 25.90778 | 34541 ft | 476 kts | 68° |
| 2026-04-27 16:27 | -4.60276 | 26.00102 | 34666 ft | 476 kts | 68° |
| 2026-04-27 16:28 | -4.57928 | 26.06347 | 34743 ft | 476 kts | 68° |
| 2026-04-27 16:29 | -4.52086 | 26.21876 | 34961 ft | 477 kts | 69° |
| 2026-04-27 16:30 | -4.47400 | 26.34335 | 34958 ft | 476 kts | 68° |
| 2026-04-27 16:31 | -4.41176 | 26.50868 | 34952 ft | 476 kts | 69° |
| 2026-04-27 16:32 | -4.38063 | 26.59133 | 34957 ft | 476 kts | 68° |
| 2026-04-27 16:33 | -4.34556 | 26.68432 | 34964 ft | 476 kts | 68° |
| 2026-04-27 16:33 | -4.32209 | 26.74641 | 34966 ft | 475 kts | 68° |
| 2026-04-27 16:34 | -4.29863 | 26.80854 | 34973 ft | 476 kts | 69° |
| 2026-04-27 16:34 | -4.27539 | 26.87052 | 34982 ft | 475 kts | 69° |
| 2026-04-27 16:35 | -4.25222 | 26.93251 | 34996 ft | 475 kts | 69° |
| 2026-04-27 16:36 | -4.21729 | 27.02587 | 35009 ft | 476 kts | 69° |
| 2026-04-27 16:36 | -4.19407 | 27.08787 | 35011 ft | 476 kts | 69° |
| 2026-04-27 16:37 | -4.17074 | 27.15017 | 35005 ft | 477 kts | 69° |
| 2026-04-27 16:37 | -4.14730 | 27.21272 | 35007 ft | 477 kts | 69° |
| 2026-04-27 16:38 | -4.12410 | 27.27461 | 35009 ft | 475 kts | 69° |
| 2026-04-27 16:38 | -4.10050 | 27.33704 | 35017 ft | 477 kts | 69° |
| 2026-04-27 16:39 | -4.07714 | 27.39867 | 35018 ft | 476 kts | 69° |
| 2026-04-27 16:39 | -4.05338 | 27.46139 | 35021 ft | 477 kts | 69° |
| 2026-04-27 16:40 | -4.02981 | 27.52363 | 35024 ft | 478 kts | 69° |
| 2026-04-27 16:40 | -4.00611 | 27.58616 | 35035 ft | 478 kts | 69° |
| 2026-04-27 16:41 | -3.98252 | 27.64842 | 35049 ft | 477 kts | 69° |
| 2026-04-27 16:41 | -3.95903 | 27.71025 | 35063 ft | 478 kts | 69° |
| 2026-04-27 16:42 | -3.93526 | 27.77279 | 35070 ft | 478 kts | 69° |
| 2026-04-27 16:42 | -3.91155 | 27.83526 | 35066 ft | 479 kts | 69° |
| 2026-04-27 16:43 | -3.88794 | 27.89755 | 35068 ft | 478 kts | 69° |
| 2026-04-27 16:43 | -3.86404 | 27.96064 | 35072 ft | 480 kts | 69° |
| 2026-04-27 16:44 | -3.84385 | 28.01386 | 35085 ft | 480 kts | 68° |
| 2026-04-27 16:44 | -3.82009 | 28.07645 | 35102 ft | 480 kts | 69° |
| 2026-04-27 16:45 | -3.79644 | 28.13871 | 35126 ft | 481 kts | 69° |
| 2026-04-27 16:45 | -3.77248 | 28.20181 | 35149 ft | 480 kts | 69° |
| 2026-04-27 16:46 | -3.74882 | 28.26408 | 35155 ft | 479 kts | 69° |
| 2026-04-27 16:46 | -3.72511 | 28.32650 | 35169 ft | 480 kts | 69° |
| 2026-04-27 16:47 | -3.70118 | 28.38945 | 35181 ft | 480 kts | 69° |
| 2026-04-27 16:47 | -3.67735 | 28.45212 | 35191 ft | 481 kts | 69° |
| 2026-04-27 16:48 | -3.65352 | 28.51479 | 35199 ft | 480 kts | 69° |
| 2026-04-27 16:48 | -3.62972 | 28.57736 | 35209 ft | 480 kts | 69° |
| 2026-04-27 16:49 | -3.59404 | 28.67108 | 35249 ft | 481 kts | 69° |
| 2026-04-27 16:49 | -3.57010 | 28.73371 | 35284 ft | 480 kts | 69° |
| 2026-04-27 16:50 | -3.54617 | 28.79636 | 35311 ft | 482 kts | 69° |
| 2026-04-27 16:50 | -3.52223 | 28.85912 | 35328 ft | 481 kts | 69° |
| 2026-04-27 16:51 | -3.49825 | 28.92196 | 35352 ft | 480 kts | 69° |
| 2026-04-27 16:51 | -3.47431 | 28.98478 | 35374 ft | 480 kts | 69° |
| 2026-04-27 16:52 | -3.45064 | 29.04708 | 35356 ft | 482 kts | 69° |
| 2026-04-27 16:52 | -3.42677 | 29.10993 | 35267 ft | 481 kts | 69° |
| 2026-04-27 16:53 | -3.40295 | 29.17260 | 35205 ft | 480 kts | 69° |
| 2026-04-27 16:53 | -3.37906 | 29.23546 | 35129 ft | 482 kts | 69° |
| 2026-04-27 16:54 | -3.35522 | 29.29814 | 35095 ft | 480 kts | 69° |
| 2026-04-27 16:54 | -3.33517 | 29.36155 | 35135 ft | 481 kts | 75° |
| 2026-04-27 16:55 | -3.31951 | 29.42667 | 35166 ft | 481 kts | 76° |
| 2026-04-27 16:55 | -3.30375 | 29.49234 | 35192 ft | 481 kts | 76° |
| 2026-04-27 16:56 | -3.28786 | 29.55705 | 35205 ft | 482 kts | 75° |
| 2026-04-27 16:56 | -3.27170 | 29.62221 | 35207 ft | 479 kts | 75° |
| 2026-04-27 16:57 | -3.25556 | 29.68709 | 35209 ft | 482 kts | 75° |
| 2026-04-27 16:57 | -3.23938 | 29.75194 | 35214 ft | 480 kts | 75° |
| 2026-04-27 16:58 | -3.22321 | 29.81692 | 35213 ft | 480 kts | 75° |
| 2026-04-27 16:58 | -3.20707 | 29.88182 | 35207 ft | 479 kts | 75° |
| 2026-04-27 16:59 | -3.19103 | 29.94633 | 35199 ft | 480 kts | 75° |
| 2026-04-27 16:59 | -3.17482 | 30.01145 | 35193 ft | 480 kts | 75° |
| 2026-04-27 17:00 | -3.15059 | 30.10884 | 35190 ft | 479 kts | 75° |
| 2026-04-27 17:01 | -3.13446 | 30.17365 | 35185 ft | 480 kts | 75° |
| 2026-04-27 17:01 | -3.11830 | 30.23852 | 35179 ft | 479 kts | 75° |
| 2026-04-27 17:02 | -3.10211 | 30.30352 | 35173 ft | 480 kts | 75° |
| 2026-04-27 17:02 | -3.08602 | 30.36811 | 35173 ft | 479 kts | 75° |
| 2026-04-27 17:03 | -3.06982 | 30.43309 | 35172 ft | 481 kts | 75° |
| 2026-04-27 17:03 | -3.05367 | 30.49790 | 35168 ft | 479 kts | 75° |
| 2026-04-27 17:04 | -3.03744 | 30.56298 | 35167 ft | 480 kts | 75° |
| 2026-04-27 17:04 | -3.02128 | 30.62777 | 35157 ft | 481 kts | 75° |
| 2026-04-27 17:05 | -3.00510 | 30.69251 | 35144 ft | 480 kts | 75° |
| 2026-04-27 17:05 | -2.98885 | 30.75742 | 35142 ft | 480 kts | 75° |
| 2026-04-27 17:06 | -2.97249 | 30.82261 | 35141 ft | 482 kts | 75° |
| 2026-04-27 17:06 | -2.95603 | 30.88750 | 35151 ft | 481 kts | 75° |
| 2026-04-27 17:07 | -2.93953 | 30.95250 | 35148 ft | 483 kts | 75° |
| 2026-04-27 17:07 | -2.92304 | 31.01754 | 35146 ft | 481 kts | 75° |
| 2026-04-27 17:08 | -2.90651 | 31.08271 | 35141 ft | 481 kts | 75° |
| 2026-04-27 17:08 | -2.89006 | 31.14762 | 35141 ft | 481 kts | 75° |
| 2026-04-27 17:09 | -2.87361 | 31.21252 | 35136 ft | 482 kts | 75° |
| 2026-04-27 17:09 | -2.85709 | 31.27765 | 35142 ft | 482 kts | 75° |
| 2026-04-27 17:10 | -2.84055 | 31.34284 | 35134 ft | 482 kts | 75° |
| 2026-04-27 17:10 | -2.82407 | 31.40771 | 35132 ft | 481 kts | 75° |
| 2026-04-27 17:11 | -2.80755 | 31.47273 | 35128 ft | 483 kts | 75° |
| 2026-04-27 17:11 | -2.78269 | 31.57063 | 35117 ft | 482 kts | 75° |
| 2026-04-27 17:12 | -2.75790 | 31.66812 | 35107 ft | 483 kts | 75° |
| 2026-04-27 17:13 | -2.74130 | 31.73326 | 35101 ft | 482 kts | 75° |
| 2026-04-27 17:13 | -2.72476 | 31.79819 | 35094 ft | 482 kts | 75° |
| 2026-04-27 17:14 | -2.70822 | 31.86318 | 35093 ft | 484 kts | 75° |
| 2026-04-27 17:14 | -2.69162 | 31.92843 | 35093 ft | 482 kts | 75° |
| 2026-04-27 17:15 | -2.67503 | 31.99363 | 35091 ft | 483 kts | 75° |
| 2026-04-27 17:15 | -2.65838 | 32.05901 | 35095 ft | 483 kts | 75° |
| 2026-04-27 17:16 | -2.64182 | 32.12406 | 35095 ft | 481 kts | 75° |
| 2026-04-27 17:16 | -2.62532 | 32.18887 | 35101 ft | 481 kts | 75° |
| 2026-04-27 17:17 | -2.60873 | 32.25397 | 35100 ft | 483 kts | 75° |
| 2026-04-27 17:17 | -2.59211 | 32.31922 | 35104 ft | 482 kts | 75° |
| 2026-04-27 17:18 | -2.56726 | 32.41672 | 35097 ft | 481 kts | 75° |
| 2026-04-27 17:18 | -2.55067 | 32.48179 | 35095 ft | 482 kts | 75° |
| 2026-04-27 17:19 | -2.53395 | 32.54738 | 35094 ft | 482 kts | 75° |
| 2026-04-27 17:19 | -2.51747 | 32.61199 | 35091 ft | 482 kts | 75° |
| 2026-04-27 17:20 | -2.50081 | 32.67724 | 35083 ft | 483 kts | 75° |
| 2026-04-27 17:20 | -2.48443 | 32.74262 | 35082 ft | 483 kts | 76° |
| 2026-04-27 17:21 | -2.47012 | 32.80785 | 35089 ft | 482 kts | 77° |
| 2026-04-27 17:21 | -2.45592 | 32.87382 | 35089 ft | 483 kts | 77° |
| 2026-04-27 17:22 | -2.44162 | 32.93908 | 35097 ft | 482 kts | 76° |
| 2026-04-27 17:22 | -2.42424 | 33.00397 | 35103 ft | 482 kts | 73° |
| 2026-04-27 17:23 | -2.40592 | 33.06865 | 35094 ft | 482 kts | 73° |
| 2026-04-27 17:23 | -2.38785 | 33.13332 | 35089 ft | 481 kts | 74° |
| 2026-04-27 17:24 | -2.36996 | 33.19793 | 35089 ft | 482 kts | 74° |
| 2026-04-27 17:24 | -2.35210 | 33.26259 | 35092 ft | 482 kts | 74° |
| 2026-04-27 17:25 | -2.33425 | 33.32722 | 35095 ft | 481 kts | 74° |
| 2026-04-27 17:25 | -2.31649 | 33.39156 | 35096 ft | 482 kts | 74° |
| 2026-04-27 17:26 | -2.29860 | 33.45628 | 35098 ft | 481 kts | 74° |
| 2026-04-27 17:26 | -2.28075 | 33.52090 | 35100 ft | 481 kts | 74° |
| 2026-04-27 17:27 | -2.26290 | 33.58550 | 35102 ft | 482 kts | 74° |
| 2026-04-27 17:27 | -2.24501 | 33.65020 | 35100 ft | 482 kts | 74° |
| 2026-04-27 17:28 | -2.22716 | 33.71465 | 35102 ft | 482 kts | 74° |
| 2026-04-27 17:29 | -2.20031 | 33.81162 | 35103 ft | 481 kts | 74° |
| 2026-04-27 17:29 | -2.18249 | 33.87600 | 35106 ft | 481 kts | 74° |
| 2026-04-27 17:30 | -2.16462 | 33.94063 | 35110 ft | 481 kts | 74° |
| 2026-04-27 17:30 | -2.13786 | 34.03734 | 35116 ft | 481 kts | 74° |
| 2026-04-27 17:31 | -2.11990 | 34.10223 | 35120 ft | 482 kts | 74° |
| 2026-04-27 17:31 | -2.10208 | 34.16658 | 35118 ft | 480 kts | 74° |
| 2026-04-27 17:32 | -2.07503 | 34.26334 | 35121 ft | 480 kts | 72° |
| 2026-04-27 17:33 | -2.05336 | 34.32659 | 35125 ft | 481 kts | 70° |
| 2026-04-27 17:33 | -2.03089 | 34.38968 | 35130 ft | 481 kts | 70° |
| 2026-04-27 17:34 | -2.00910 | 34.45288 | 35138 ft | 480 kts | 72° |
| 2026-04-27 17:34 | -1.99068 | 34.51754 | 35147 ft | 481 kts | 74° |
| 2026-04-27 17:35 | -1.97296 | 34.58203 | 35150 ft | 480 kts | 74° |
| 2026-04-27 17:35 | -1.95492 | 34.64659 | 35148 ft | 481 kts | 74° |
| 2026-04-27 17:36 | -1.93672 | 34.71105 | 35155 ft | 480 kts | 73° |
| 2026-04-27 17:36 | -1.91848 | 34.77547 | 35159 ft | 480 kts | 74° |
| 2026-04-27 17:37 | -1.90015 | 34.84026 | 35172 ft | 481 kts | 74° |
| 2026-04-27 17:37 | -1.88202 | 34.90447 | 35175 ft | 480 kts | 74° |
| 2026-04-27 17:38 | -1.86380 | 34.96898 | 35183 ft | 480 kts | 74° |
| 2026-04-27 17:38 | -1.84669 | 35.03358 | 35190 ft | 481 kts | 76° |
| 2026-04-27 17:39 | -1.83170 | 35.09885 | 35198 ft | 480 kts | 77° |
| 2026-04-27 17:39 | -1.81669 | 35.16417 | 35207 ft | 481 kts | 76° |
| 2026-04-27 17:40 | -1.80154 | 35.22919 | 35218 ft | 480 kts | 76° |
| 2026-04-27 17:40 | -1.78617 | 35.29475 | 35223 ft | 481 kts | 76° |
| 2026-04-27 17:41 | -1.77088 | 35.35995 | 35225 ft | 480 kts | 76° |
| 2026-04-27 17:41 | -1.75669 | 35.42543 | 35225 ft | 480 kts | 78° |
| 2026-04-27 17:41 | -1.75007 | 35.45774 | 35022 ft | 469 kts | 78° |
| 2026-04-27 17:42 | -1.74357 | 35.48946 | 34187 ft | 468 kts | 78° |
| 2026-04-27 17:42 | -1.73698 | 35.52145 | 33321 ft | 467 kts | 78° |
| 2026-04-27 17:42 | -1.73046 | 35.55294 | 32643 ft | 463 kts | 77° |
| 2026-04-27 17:42 | -1.72389 | 35.58460 | 32013 ft | 459 kts | 78° |
| 2026-04-27 17:43 | -1.71748 | 35.61542 | 31392 ft | 455 kts | 77° |
| 2026-04-27 17:43 | -1.71104 | 35.64637 | 30777 ft | 452 kts | 78° |
| 2026-04-27 17:43 | -1.70462 | 35.67719 | 30172 ft | 449 kts | 78° |
| 2026-04-27 17:43 | -1.69829 | 35.70754 | 29558 ft | 446 kts | 78° |
| 2026-04-27 17:44 | -1.69197 | 35.73782 | 28975 ft | 443 kts | 78° |
| 2026-04-27 17:44 | -1.68572 | 35.76783 | 28437 ft | 439 kts | 78° |
| 2026-04-27 17:44 | -1.67952 | 35.79754 | 27915 ft | 435 kts | 78° |
| 2026-04-27 17:44 | -1.67337 | 35.82709 | 27409 ft | 431 kts | 78° |
| 2026-04-27 17:45 | -1.66727 | 35.85638 | 26918 ft | 427 kts | 78° |
| 2026-04-27 17:45 | -1.66126 | 35.88523 | 26297 ft | 422 kts | 77° |
| 2026-04-27 17:45 | -1.65534 | 35.91367 | 25334 ft | 417 kts | 77° |
| 2026-04-27 17:45 | -1.64943 | 35.94197 | 24433 ft | 411 kts | 77° |
| 2026-04-27 17:46 | -1.64368 | 35.96959 | 23553 ft | 405 kts | 77° |
| 2026-04-27 17:46 | -1.63799 | 35.99687 | 22669 ft | 399 kts | 77° |
| 2026-04-27 17:46 | -1.63234 | 36.02396 | 21822 ft | 393 kts | 77° |
| 2026-04-27 17:46 | -1.62682 | 36.05042 | 20965 ft | 387 kts | 77° |
| 2026-04-27 17:47 | -1.62135 | 36.07664 | 20083 ft | 383 kts | 77° |
| 2026-04-27 17:47 | -1.61771 | 36.09407 | 19508 ft | 379 kts | 77° |
| 2026-04-27 17:47 | -1.61061 | 36.12816 | 18354 ft | 373 kts | 78° |
| 2026-04-27 17:47 | -1.60532 | 36.15352 | 17476 ft | 369 kts | 78° |
| 2026-04-27 17:48 | -1.60013 | 36.17842 | 16609 ft | 365 kts | 78° |
| 2026-04-27 17:48 | -1.59496 | 36.20320 | 15753 ft | 362 kts | 78° |
| 2026-04-27 17:48 | -1.58985 | 36.22774 | 14897 ft | 358 kts | 78° |
| 2026-04-27 17:48 | -1.58475 | 36.25220 | 14272 ft | 359 kts | 78° |
| 2026-04-27 17:49 | -1.57968 | 36.27653 | 13709 ft | 360 kts | 78° |
| 2026-04-27 17:49 | -1.57456 | 36.30112 | 13156 ft | 360 kts | 78° |
| 2026-04-27 17:49 | -1.56943 | 36.32574 | 12613 ft | 360 kts | 78° |
| 2026-04-27 17:49 | -1.56430 | 36.35032 | 12097 ft | 360 kts | 78° |
| 2026-04-27 17:50 | -1.55922 | 36.37468 | 11577 ft | 359 kts | 78° |
| 2026-04-27 17:50 | -1.54901 | 36.42363 | 10580 ft | 356 kts | 78° |
| 2026-04-27 17:50 | -1.54398 | 36.44771 | 10208 ft | 351 kts | 78° |
| 2026-04-27 17:51 | -1.53899 | 36.47164 | 9969 ft | 341 kts | 78° |
| 2026-04-27 17:51 | -1.53421 | 36.49458 | 9731 ft | 332 kts | 78° |
| 2026-04-27 17:51 | -1.52951 | 36.51707 | 9510 ft | 323 kts | 78° |
| 2026-04-27 17:51 | -1.52499 | 36.53872 | 9290 ft | 315 kts | 78° |
| 2026-04-27 17:52 | -1.52056 | 36.55995 | 9069 ft | 307 kts | 78° |
| 2026-04-27 17:52 | -1.51622 | 36.58073 | 8848 ft | 300 kts | 78° |
| 2026-04-27 17:52 | -1.51198 | 36.60099 | 8631 ft | 293 kts | 78° |
| 2026-04-27 17:52 | -1.50782 | 36.62093 | 8408 ft | 286 kts | 78° |
| 2026-04-27 17:53 | -1.50349 | 36.64015 | 8204 ft | 276 kts | 70° |
| 2026-04-27 17:53 | -1.49489 | 36.65698 | 8057 ft | 265 kts | 59° |
| 2026-04-27 17:53 | -1.48539 | 36.67237 | 7918 ft | 257 kts | 58° |
| 2026-04-27 17:53 | -1.47588 | 36.68750 | 7768 ft | 250 kts | 58° |
| 2026-04-27 17:54 | -1.46678 | 36.70199 | 7623 ft | 244 kts | 58° |
| 2026-04-27 17:54 | -1.45783 | 36.71628 | 7446 ft | 236 kts | 58° |
| 2026-04-27 17:54 | -1.44932 | 36.72989 | 7330 ft | 228 kts | 58° |
| 2026-04-27 17:54 | -1.44090 | 36.74335 | 7285 ft | 224 kts | 58° |
| 2026-04-27 17:55 | -1.43247 | 36.75684 | 7282 ft | 228 kts | 58° |
| 2026-04-27 17:55 | -1.42534 | 36.77076 | 7268 ft | 227 kts | 80° |
| 2026-04-27 17:55 | -1.42186 | 36.78642 | 7267 ft | 228 kts | 62° |
| 2026-04-27 17:55 | -1.41281 | 36.79909 | 7274 ft | 216 kts | 54° |
| 2026-04-27 17:56 | -1.40414 | 36.81135 | 7267 ft | 212 kts | 54° |
| 2026-04-27 17:56 | -1.39562 | 36.82325 | 7268 ft | 209 kts | 54° |
| 2026-04-27 17:56 | -1.38692 | 36.83524 | 7213 ft | 210 kts | 54° |
| 2026-04-27 17:56 | -1.37842 | 36.84689 | 6949 ft | 206 kts | 54° |
| 2026-04-27 17:57 | -1.36994 | 36.85849 | 6676 ft | 200 kts | 54° |
| 2026-04-27 17:57 | -1.36199 | 36.86936 | 6464 ft | 187 kts | 54° |
| 2026-04-27 17:57 | -1.35461 | 36.87944 | 6272 ft | 170 kts | 54° |
| 2026-04-27 17:57 | -1.34753 | 36.88894 | 5981 ft | 167 kts | 54° |
| 2026-04-27 17:58 | -1.34082 | 36.89801 | 5739 ft | 161 kts | 54° |
| 2026-04-27 17:58 | -1.33425 | 36.90712 | 5560 ft | 158 kts | 54° |
| 2026-04-27 17:58 | -1.32768 | 36.91621 | 5371 ft | 164 kts | 54° |
| 2026-04-27 17:58 | -1.32128 | 36.92500 | 5319 ft | 132 kts | 53° |
| 2026-04-27 17:59 | -1.31717 | 36.93064 | 5320 ft | 68 kts | 53° |
| 2026-04-27 17:59 | -1.31566 | 36.93294 | 5315 ft | 16 kts | 102° |
| 2026-04-27 17:59 | -1.31632 | 36.93372 | 5312 ft | 14 kts | 133° |
| 2026-04-27 17:59 | -1.31716 | 36.93440 | 5306 ft | 17 kts | 142° |
| 2026-04-27 18:00 | -1.31811 | 36.93478 | 5303 ft | 13 kts | 213° |
| 2026-04-27 18:00 | -1.31860 | 36.93418 | 5305 ft | 9 kts | 233° |
| 2026-04-27 18:00 | -1.31888 | 36.93382 | 5307 ft | 4 kts | 233° |
| 2026-04-27 18:00 | -1.31905 | 36.93359 | 5308 ft | 3 kts | 233° |
| 2026-04-27 18:01 | -1.31923 | 36.93335 | 5309 ft | 5 kts | 233° |
| 2026-04-27 18:01 | -1.31957 | 36.93290 | 5311 ft | 10 kts | 232° |
| 2026-04-27 18:01 | -1.32015 | 36.93211 | 5315 ft | 18 kts | 237° |
| 2026-04-27 18:01 | -1.32097 | 36.93098 | 5321 ft | 20 kts | 233° |
| 2026-04-27 18:02 | -1.32174 | 36.92994 | 5326 ft | 16 kts | 234° |
| 2026-04-27 18:02 | -1.32238 | 36.92908 | 5327 ft | 14 kts | 233° |
| 2026-04-27 18:02 | -1.32291 | 36.92834 | 5328 ft | 12 kts | 234° |
| 2026-04-27 18:02 | -1.32338 | 36.92769 | 5327 ft | 11 kts | 234° |
| 2026-04-27 18:03 | -1.32386 | 36.92703 | 5327 ft | 11 kts | 234° |
| 2026-04-27 18:03 | -1.32434 | 36.92635 | 5326 ft | 12 kts | 234° |
| 2026-04-27 18:03 | -1.32490 | 36.92559 | 5324 ft | 13 kts | 234° |
| 2026-04-27 18:03 | -1.32546 | 36.92481 | 5322 ft | 13 kts | 234° |
| 2026-04-27 18:04 | -1.32605 | 36.92401 | 5320 ft | 14 kts | 234° |
| 2026-04-27 18:04 | -1.32669 | 36.92318 | 5318 ft | 14 kts | 233° |
| 2026-04-27 18:04 | -1.32725 | 36.92242 | 5321 ft | 11 kts | 233° |
| 2026-04-27 18:04 | -1.32784 | 36.92214 | 5321 ft | 9 kts | 162° |
| 2026-04-27 18:05 | -1.32850 | 36.92250 | 5317 ft | 12 kts | 155° |
| 2026-04-27 18:05 | -1.32927 | 36.92249 | 5317 ft | 8 kts | 206° |
| 2026-04-27 18:05 | -1.32950 | 36.92214 | 5319 ft | 3 kts | 268° |
| 2026-04-27 18:05 | -1.32949 | 36.92205 | 5319 ft | 0 kts | 280° |
| 2026-04-27 18:06 | -1.32948 | 36.92200 | 5319 ft | 2 kts | 283° |
| 2026-04-27 18:06 | -1.32939 | 36.92165 | 5321 ft | 5 kts | 284° |